Decoded Metar for LFLS (GRENOBLE in FRANCE) (IATA:GNB) | Meteo·Mobile Aviation Weather
aviador You're here:

LFLS Decoded Metar

GRENOBLE in FRANCE
Report Time2019-02-17 19:00:00
UTC Time2019-02-17 19:35:59
Flight Rules mvfr MVFR
WindVRB at 03 kt
Visibility9999 m
Phenomena:N/A
Clouds:N/A
Expected CloudBase > 3,200 ft AGL from Temp-Dew spread
Ceiling1,000 ft
Temp09°C (ISA -3)
Dew Point01°C (58% RH)
AAT6.1°C
QNH1024 hPa
Density Alt574 ft
Elevation1,266 ft
Report Wrong Elevation
Raw Report
LFLS 171900Z AUTO VRB03KT CAVOK 09/01 Q1024 TEMPO BKN010=

Extra information for LFLS:More info

Metar Taf Metar & Taf Last 4 Metars F.Rules Stats Wind Profile Meteogram Temp Stats Airport Information Weather charts Add Link Nearby VenuesMetar ALERT Operation Metar Decoded Social comments